createdAt,value
2023-02-22T00:05:08.809Z,45.40
2023-02-22T00:07:39.864Z,45.93
2023-02-22T00:10:13.329Z,44.47
2023-02-22T00:12:44.498Z,44.00
2023-02-22T00:15:14.216Z,44.50
2023-02-22T00:17:42.128Z,39.87
2023-02-22T00:20:15.235Z,45.37
2023-02-22T00:22:47.248Z,45.90
2023-02-22T00:25:18.752Z,43.57
2023-02-22T00:27:47.996Z,40.87
2023-02-22T00:30:20.573Z,39.97
2023-02-22T00:32:50.321Z,41.90
2023-02-22T00:35:26.697Z,45.23
2023-02-22T00:38:00.182Z,44.83
2023-02-22T00:40:32.732Z,50.33
2023-02-22T00:43:08.814Z,48.00
2023-02-22T00:45:40.874Z,49.63
2023-02-22T00:48:24.734Z,46.87
2023-02-22T00:50:56.120Z,51.17
2023-02-22T00:53:28.020Z,47.63
2023-02-22T00:55:58.933Z,45.97
2023-02-22T00:58:28.855Z,50.07
2023-02-22T01:00:59.186Z,47.00
2023-02-22T01:03:27.163Z,48.47
2023-02-22T01:05:56.491Z,43.90
2023-02-22T01:08:29.972Z,49.07
2023-02-22T01:10:58.824Z,52.03
2023-02-22T01:13:35.857Z,47.13
2023-02-22T01:16:07.907Z,45.13
2023-02-22T01:18:39.133Z,48.10
2023-02-22T01:21:16.743Z,49.70
2023-02-22T01:23:48.396Z,46.07
2023-02-22T01:26:16.395Z,44.97
2023-02-22T01:28:47.674Z,45.10
2023-02-22T01:31:41.288Z,43.07
2023-02-22T01:34:12.842Z,46.17
2023-02-22T01:36:42.881Z,51.47
2023-02-22T01:39:11.322Z,42.87
2023-02-22T01:41:41.414Z,43.43
2023-02-22T01:44:34.894Z,43.97
2023-02-22T01:47:05.108Z,43.47
2023-02-22T01:49:38.476Z,44.60
2023-02-22T01:52:11.195Z,45.77
2023-02-22T01:54:45.500Z,46.47
2023-02-22T01:57:22.603Z,46.03
2023-02-22T01:59:55.249Z,43.63
2023-02-22T02:02:26.412Z,49.13
2023-02-22T02:05:01.909Z,45.47
2023-02-22T02:07:35.770Z,51.13
2023-02-22T02:10:11.417Z,46.83
2023-02-22T02:13:00.209Z,46.73
2023-02-22T02:15:30.714Z,45.47
2023-02-22T02:18:01.725Z,48.00
2023-02-22T02:20:40.181Z,44.67
2023-02-22T02:23:37.849Z,42.00
2023-02-22T02:26:32.452Z,48.67
2023-02-22T02:29:56.713Z,52.10
2023-02-22T02:32:40.823Z,56.13
2023-02-22T02:35:15.823Z,53.53
2023-02-22T02:37:59.065Z,53.60
2023-02-22T02:40:36.181Z,57.07
2023-02-22T02:43:11.516Z,55.70
2023-02-22T02:45:46.978Z,57.83
2023-02-22T02:48:22.101Z,62.37
2023-02-22T02:50:52.067Z,51.80
2023-02-22T02:53:23.312Z,55.67
2023-02-22T02:55:51.347Z,52.63
2023-02-22T02:58:22.494Z,54.07
2023-02-22T03:00:53.330Z,50.77
2023-02-22T03:03:45.991Z,47.60
2023-02-22T03:06:37.354Z,48.77
2023-02-22T03:09:14.798Z,46.10
2023-02-22T03:11:55.634Z,46.90
2023-02-22T03:14:28.212Z,45.77
2023-02-22T03:17:06.042Z,41.97
2023-02-22T03:19:39.478Z,40.57
2023-02-22T03:22:14.063Z,39.57
2023-02-22T03:24:52.937Z,39.70
2023-02-22T03:27:28.657Z,37.77
2023-02-22T03:30:06.439Z,39.60
2023-02-22T03:32:39.623Z,35.33
2023-02-22T03:35:13.023Z,40.83
2023-02-22T03:37:46.396Z,37.70
2023-02-22T03:40:25.977Z,37.43
2023-02-22T03:43:02.279Z,32.80
2023-02-22T03:45:31.973Z,30.83
2023-02-22T03:48:07.046Z,26.40
2023-02-22T03:50:39.237Z,28.80
2023-02-22T03:53:08.703Z,28.17
2023-02-22T03:55:39.923Z,29.87
2023-02-22T03:58:11.983Z,27.13
2023-02-22T04:00:44.578Z,32.83
2023-02-22T04:03:12.886Z,26.77
2023-02-22T04:05:42.327Z,26.13
2023-02-22T04:08:10.240Z,21.83
2023-02-22T04:10:38.594Z,26.47
2023-02-22T04:13:07.724Z,23.53
2023-02-22T04:15:39.024Z,23.10
2023-02-22T04:18:09.597Z,22.30
2023-02-22T04:20:38.021Z,22.27
2023-02-22T04:23:13.620Z,22.20
2023-02-22T04:25:42.925Z,22.97
2023-02-22T04:28:16.153Z,23.33
2023-02-22T04:30:55.071Z,22.30
2023-02-22T04:33:24.296Z,25.53
2023-02-22T04:35:52.317Z,23.83
2023-02-22T04:38:21.561Z,22.07
2023-02-22T04:40:49.525Z,21.10
2023-02-22T04:43:17.454Z,24.63
2023-02-22T04:45:45.565Z,26.60
2023-02-22T04:48:14.346Z,28.17
2023-02-22T04:50:42.485Z,24.37
2023-02-22T04:53:10.400Z,24.57
2023-02-22T04:55:41.054Z,31.23
2023-02-22T04:58:09.653Z,26.40
2023-02-22T05:00:38.472Z,28.07
2023-02-22T05:03:07.663Z,25.03
2023-02-22T05:05:35.715Z,30.13
2023-02-22T05:08:03.613Z,30.43
2023-02-22T05:10:33.519Z,29.90
2023-02-22T05:13:04.233Z,30.77
2023-02-22T05:15:33.052Z,30.67
2023-02-22T05:18:01.080Z,28.87
2023-02-22T05:20:32.447Z,31.10
2023-02-22T05:23:01.749Z,28.67
2023-02-22T05:25:30.122Z,32.50
2023-02-22T05:27:59.571Z,32.67
2023-02-22T05:30:30.879Z,31.93
2023-02-22T05:32:59.245Z,28.73
2023-02-22T05:35:29.005Z,28.50
2023-02-22T05:37:57.511Z,33.47
2023-02-22T05:40:27.478Z,31.63
2023-02-22T05:42:56.727Z,28.43
2023-02-22T05:45:27.664Z,30.40
2023-02-22T05:47:57.453Z,32.87
2023-02-22T05:50:25.490Z,28.90
2023-02-22T05:52:53.772Z,34.07
2023-02-22T05:55:23.982Z,31.23
2023-02-22T05:57:52.434Z,30.17
2023-02-22T06:00:23.585Z,25.90
2023-02-22T06:02:57.047Z,26.90
2023-02-22T06:05:25.731Z,28.47
2023-02-22T06:07:53.942Z,25.57
2023-02-22T06:10:22.148Z,28.20
2023-02-22T06:12:50.532Z,27.20
2023-02-22T06:15:20.367Z,30.20
2023-02-22T06:17:48.254Z,27.13
2023-02-22T06:20:20.042Z,27.33
2023-02-22T06:22:48.847Z,29.43
2023-02-22T06:25:19.658Z,27.97
2023-02-22T06:27:47.903Z,29.87
2023-02-22T06:30:17.496Z,29.50
2023-02-22T06:32:46.105Z,29.70
2023-02-22T06:35:14.924Z,29.23
2023-02-22T06:37:44.187Z,30.50
2023-02-22T06:40:13.554Z,29.20
2023-02-22T06:42:41.833Z,32.03
2023-02-22T06:45:11.261Z,34.57
2023-02-22T06:47:40.629Z,29.03
2023-02-22T06:50:19.398Z,26.40
2023-02-22T06:52:49.042Z,27.57
2023-02-22T06:55:21.441Z,24.60
2023-02-22T06:57:49.268Z,26.07
2023-02-22T07:00:18.849Z,25.47
2023-02-22T07:02:48.411Z,26.50
2023-02-22T07:05:18.606Z,24.93
2023-02-22T07:07:48.007Z,24.87
2023-02-22T07:10:21.470Z,23.40
2023-02-22T07:12:49.926Z,28.40
2023-02-22T07:15:19.152Z,22.90
2023-02-22T07:17:46.978Z,26.57
2023-02-22T07:20:15.220Z,26.17
2023-02-22T07:22:43.159Z,25.47
2023-02-22T07:25:12.701Z,25.87
2023-02-22T07:27:42.385Z,26.33
2023-02-22T07:30:18.030Z,24.97
2023-02-22T07:32:46.580Z,23.30
2023-02-22T07:35:17.210Z,24.00
2023-02-22T07:37:45.319Z,24.63
2023-02-22T07:40:14.907Z,24.03
2023-02-22T07:42:53.526Z,25.90
2023-02-22T07:45:22.627Z,25.63
2023-02-22T07:47:50.533Z,20.37
2023-02-22T07:50:20.685Z,23.23
2023-02-22T07:52:49.736Z,24.97
2023-02-22T07:55:21.943Z,23.83
2023-02-22T07:57:51.170Z,26.30
2023-02-22T08:00:24.656Z,26.20
2023-02-22T08:02:52.662Z,26.43
2023-02-22T08:05:21.744Z,23.53
2023-02-22T08:07:49.603Z,21.57
2023-02-22T08:10:22.462Z,23.00
2023-02-22T08:12:50.725Z,23.80
2023-02-22T08:15:20.904Z,27.43
2023-02-22T08:17:48.691Z,25.07
2023-02-22T08:20:17.119Z,20.97
2023-02-22T08:22:45.457Z,25.10
2023-02-22T08:25:15.540Z,20.90
2023-02-22T08:27:47.060Z,21.50
2023-02-22T08:30:17.534Z,22.90
2023-02-22T08:32:46.960Z,21.40
2023-02-22T08:35:15.264Z,21.70
2023-02-22T08:37:44.353Z,20.00
2023-02-22T08:40:14.957Z,23.13
2023-02-22T08:42:44.741Z,19.93
2023-02-22T08:45:13.371Z,22.17
2023-02-22T08:47:42.185Z,25.30
2023-02-22T08:50:17.475Z,22.20
2023-02-22T08:52:45.335Z,21.10
2023-02-22T08:55:13.260Z,22.33
2023-02-22T08:57:41.025Z,20.87
2023-02-22T09:00:11.911Z,21.50
2023-02-22T09:02:39.831Z,21.93
2023-02-22T09:05:08.531Z,22.63
2023-02-22T09:07:36.561Z,23.90
2023-02-22T09:10:06.139Z,26.70
2023-02-22T09:12:34.042Z,20.50
2023-02-22T09:15:01.851Z,21.57
2023-02-22T09:17:37.493Z,21.90
2023-02-22T09:20:07.623Z,21.57
2023-02-22T09:22:35.809Z,23.87
2023-02-22T09:25:15.900Z,21.43
2023-02-22T09:27:45.093Z,21.43
2023-02-22T09:30:19.260Z,21.93
2023-02-22T09:32:48.730Z,27.23
2023-02-22T09:35:16.742Z,20.87
2023-02-22T09:37:45.209Z,21.53
2023-02-22T09:40:24.808Z,21.37
2023-02-22T09:43:17.525Z,22.67
2023-02-22T09:46:02.957Z,22.77
2023-02-22T09:48:37.384Z,24.13
2023-02-22T09:51:23.226Z,23.00
2023-02-22T09:54:00.142Z,21.00
2023-02-22T09:56:29.055Z,26.47
2023-02-22T09:59:01.809Z,22.67
2023-02-22T10:01:33.300Z,22.37
2023-02-22T10:04:12.084Z,21.73
2023-02-22T10:06:43.388Z,22.67
2023-02-22T10:09:12.316Z,24.63
2023-02-22T10:11:53.155Z,21.37
2023-02-22T10:14:55.487Z,22.07
2023-02-22T10:17:35.283Z,22.07
2023-02-22T10:20:19.623Z,18.13
2023-02-22T10:23:03.610Z,20.87
2023-02-22T10:25:35.112Z,19.40
2023-02-22T10:28:08.020Z,19.57
2023-02-22T10:30:42.667Z,17.83
2023-02-22T10:33:17.011Z,19.40
2023-02-22T10:35:47.279Z,15.47
2023-02-22T10:38:20.350Z,16.57
2023-02-22T10:40:51.753Z,16.03
2023-02-22T10:43:19.972Z,14.63
2023-02-22T10:45:48.188Z,13.67
2023-02-22T10:48:19.620Z,14.37
2023-02-22T10:50:50.574Z,12.43
2023-02-22T10:53:18.481Z,13.47
2023-02-22T10:56:10.138Z,13.93
2023-02-22T10:58:47.890Z,13.67
2023-02-22T11:01:21.326Z,10.97
2023-02-22T11:03:58.933Z,11.50
2023-02-22T11:06:28.349Z,13.53
2023-02-22T11:09:10.487Z,11.57
2023-02-22T11:11:40.005Z,10.63
2023-02-22T11:14:10.665Z,13.33
2023-02-22T11:16:42.065Z,11.43
2023-02-22T11:19:20.699Z,11.87
2023-02-22T11:21:52.960Z,11.60
2023-02-22T11:24:24.683Z,13.17
2023-02-22T11:26:56.332Z,10.97
2023-02-22T11:29:28.085Z,11.40
2023-02-22T11:31:56.916Z,11.77
2023-02-22T11:34:32.326Z,13.10
2023-02-22T11:37:18.342Z,10.57
2023-02-22T11:39:46.856Z,16.10
2023-02-22T11:42:25.568Z,13.50
2023-02-22T11:45:12.758Z,13.37
2023-02-22T11:47:52.486Z,10.83
2023-02-22T11:50:35.986Z,10.93
2023-02-22T11:53:30.787Z,11.00
2023-02-22T11:56:16.121Z,13.67
2023-02-22T11:58:49.402Z,9.50
2023-02-22T12:01:27.888Z,9.00
2023-02-22T12:04:26.814Z,11.80
2023-02-22T12:07:10.235Z,10.43
2023-02-22T12:09:45.803Z,10.50
2023-02-22T12:12:26.214Z,11.90
2023-02-22T12:15:01.683Z,11.33
2023-02-22T12:17:59.369Z,9.13
2023-02-22T12:20:33.299Z,11.23
2023-02-22T12:23:09.687Z,10.87
2023-02-22T12:25:45.381Z,11.40
2023-02-22T12:28:25.128Z,11.10
2023-02-22T12:31:03.218Z,13.73
2023-02-22T12:33:39.904Z,10.17
2023-02-22T12:36:15.035Z,12.77
2023-02-22T12:38:46.647Z,12.73
2023-02-22T12:41:23.769Z,11.40
2023-02-22T12:43:58.607Z,14.27
2023-02-22T12:46:32.592Z,16.67
2023-02-22T12:49:11.157Z,15.63
2023-02-22T12:51:45.354Z,11.07
2023-02-22T12:54:19.681Z,13.37
2023-02-22T12:56:55.541Z,11.60
2023-02-22T12:59:30.474Z,13.97
2023-02-22T13:02:03.434Z,12.90
2023-02-22T13:04:34.893Z,13.27
2023-02-22T13:07:21.963Z,14.07
2023-02-22T13:10:31.576Z,11.57
2023-02-22T13:13:10.413Z,12.93
2023-02-22T13:15:47.496Z,14.10
2023-02-22T13:18:23.431Z,13.83
2023-02-22T13:20:58.115Z,13.50
2023-02-22T13:23:39.130Z,14.33
2023-02-22T13:26:13.426Z,12.67
2023-02-22T13:28:48.196Z,13.67
2023-02-22T13:31:34.990Z,12.87
2023-02-22T13:34:23.073Z,15.17
2023-02-22T13:37:10.004Z,12.40
2023-02-22T13:39:58.000Z,11.73
2023-02-22T13:42:51.935Z,15.83
2023-02-22T13:45:48.324Z,16.60
2023-02-22T13:48:42.388Z,15.97
2023-02-22T13:51:20.692Z,15.73
2023-02-22T13:53:55.472Z,16.97
2023-02-22T13:56:25.372Z,16.03
2023-02-22T13:58:56.199Z,13.37
2023-02-22T14:01:54.912Z,16.87
2023-02-22T14:04:37.141Z,16.93
2023-02-22T14:07:34.033Z,18.93
2023-02-22T14:10:02.106Z,16.83
2023-02-22T14:12:50.003Z,15.70
2023-02-22T14:15:29.633Z,14.50
2023-02-22T14:18:02.001Z,17.07
2023-02-22T14:20:35.294Z,18.13
2023-02-22T14:23:29.797Z,13.67
2023-02-22T14:26:11.189Z,14.13
2023-02-22T14:28:43.388Z,18.53
2023-02-22T14:31:29.476Z,17.87
2023-02-22T14:34:07.757Z,14.77
2023-02-22T14:36:41.976Z,14.17
2023-02-22T14:39:16.264Z,18.57
2023-02-22T14:41:51.147Z,17.07
2023-02-22T14:44:24.990Z,17.20
2023-02-22T14:46:56.737Z,15.20
2023-02-22T14:49:29.611Z,14.77
2023-02-22T14:52:03.795Z,19.00
2023-02-22T14:54:39.816Z,14.53
2023-02-22T14:57:16.415Z,17.50
2023-02-22T14:59:57.081Z,17.57
2023-02-22T15:02:26.066Z,16.40
2023-02-22T15:04:57.126Z,13.20
2023-02-22T15:07:29.080Z,13.77
2023-02-22T15:10:17.681Z,16.53
2023-02-22T15:12:53.946Z,16.37
2023-02-22T15:15:24.136Z,15.03
2023-02-22T15:17:57.093Z,19.10
2023-02-22T15:20:27.096Z,16.50
2023-02-22T15:23:00.094Z,19.33
2023-02-22T15:25:31.240Z,16.87
2023-02-22T15:28:04.101Z,16.17
2023-02-22T15:30:35.111Z,17.47
2023-02-22T15:33:16.355Z,14.67
2023-02-22T15:35:46.176Z,17.63
2023-02-22T15:38:22.559Z,15.53
2023-02-22T15:41:02.587Z,17.13
2023-02-22T15:43:32.277Z,18.13
2023-02-22T15:46:01.364Z,18.03
2023-02-22T15:48:31.598Z,15.20
2023-02-22T15:51:09.219Z,23.57
2023-02-22T15:53:42.855Z,18.00
2023-02-22T15:56:15.342Z,16.73
2023-02-22T15:58:47.401Z,17.63
2023-02-22T16:01:18.991Z,14.67
2023-02-22T16:03:49.707Z,16.13
2023-02-22T16:06:29.629Z,17.40
2023-02-22T16:09:00.356Z,16.50
2023-02-22T16:11:32.242Z,19.10
2023-02-22T16:14:04.857Z,17.60
2023-02-22T16:16:34.749Z,20.17
2023-02-22T16:19:31.220Z,16.63
2023-02-22T16:22:03.995Z,18.20
2023-02-22T16:24:33.787Z,16.43
2023-02-22T16:27:05.581Z,17.60
2023-02-22T16:29:33.578Z,15.50
2023-02-22T16:32:03.848Z,16.30
2023-02-22T16:34:32.340Z,20.03
2023-02-22T16:37:02.025Z,22.57
2023-02-22T16:39:31.848Z,19.60
2023-02-22T16:42:01.368Z,26.17
2023-02-22T16:44:32.135Z,19.03
2023-02-22T16:47:00.918Z,15.37
2023-02-22T16:49:28.897Z,18.47
2023-02-22T16:52:02.497Z,24.83
2023-02-22T16:54:36.452Z,21.67
2023-02-22T16:57:06.542Z,19.23
2023-02-22T16:59:39.690Z,20.87
2023-02-22T17:02:13.114Z,20.07
2023-02-22T17:04:41.601Z,19.07
2023-02-22T17:07:10.972Z,21.83
2023-02-22T17:09:39.592Z,18.43
2023-02-22T17:12:07.805Z,18.30
2023-02-22T17:14:37.036Z,18.83
2023-02-22T17:17:05.325Z,19.40
2023-02-22T17:19:33.339Z,19.10
2023-02-22T17:22:05.893Z,18.77
2023-02-22T17:24:35.218Z,20.97
2023-02-22T17:27:03.828Z,17.13
2023-02-22T17:29:33.957Z,18.53
2023-02-22T17:32:02.730Z,20.40
2023-02-22T17:34:30.673Z,20.23
2023-02-22T17:36:58.537Z,21.20
2023-02-22T17:39:27.921Z,20.03
2023-02-22T17:41:57.878Z,19.63
2023-02-22T17:44:26.208Z,23.73
2023-02-22T17:46:54.203Z,25.67
2023-02-22T17:49:22.188Z,21.80
2023-02-22T17:51:50.431Z,22.17
2023-02-22T17:54:19.015Z,19.90
2023-02-22T17:56:46.765Z,20.90
2023-02-22T17:59:16.200Z,21.33
2023-02-22T18:01:45.310Z,22.37
2023-02-22T18:04:13.345Z,22.13
2023-02-22T18:06:41.380Z,23.67
2023-02-22T18:09:11.338Z,24.03
2023-02-22T18:11:40.602Z,25.80
2023-02-22T18:14:10.737Z,24.43
2023-02-22T18:16:41.539Z,25.60
2023-02-22T18:19:09.346Z,22.27
2023-02-22T18:21:38.733Z,27.60
2023-02-22T18:24:07.385Z,25.00
2023-02-22T18:26:35.472Z,27.77
2023-02-22T18:29:03.247Z,22.07
2023-02-22T18:31:31.159Z,26.13
2023-02-22T18:34:00.550Z,27.17
2023-02-22T18:36:28.359Z,24.73
2023-02-22T18:38:56.445Z,30.47
2023-02-22T18:41:26.364Z,25.40
2023-02-22T18:43:55.320Z,30.27
2023-02-22T18:46:25.505Z,30.10
2023-02-22T18:48:55.468Z,30.93
2023-02-22T18:51:26.157Z,26.87
2023-02-22T18:54:00.069Z,30.47
2023-02-22T18:56:30.611Z,29.20
2023-02-22T18:59:00.192Z,27.70
2023-02-22T19:01:29.149Z,29.97
2023-02-22T19:03:57.146Z,29.73
2023-02-22T19:06:26.605Z,30.27
2023-02-22T19:08:54.403Z,34.07
2023-02-22T19:11:24.427Z,27.10
2023-02-22T19:13:54.424Z,31.70
2023-02-22T19:16:24.445Z,30.47
2023-02-22T19:18:56.874Z,28.97
2023-02-22T19:21:27.381Z,27.57
2023-02-22T19:24:01.208Z,29.17
2023-02-22T19:26:29.895Z,29.20
2023-02-22T19:28:59.849Z,30.33
2023-02-22T19:31:31.035Z,31.20
2023-02-22T19:34:02.466Z,31.27
2023-02-22T19:36:32.448Z,29.67
2023-02-22T19:39:02.009Z,28.10
2023-02-22T19:41:30.987Z,31.37
2023-02-22T19:43:59.811Z,31.43
2023-02-22T19:46:28.272Z,30.57
2023-02-22T19:48:56.545Z,28.77
2023-02-22T19:51:28.658Z,31.37
2023-02-22T19:54:00.563Z,29.73
2023-02-22T19:56:29.185Z,30.23
2023-02-22T19:58:58.893Z,30.13
2023-02-22T20:01:29.852Z,31.20
2023-02-22T20:04:00.012Z,29.50
2023-02-22T20:06:34.540Z,28.93
2023-02-22T20:09:04.906Z,31.53
2023-02-22T20:11:33.311Z,31.20
2023-02-22T20:14:02.061Z,31.23
2023-02-22T20:16:30.273Z,32.23
2023-02-22T20:18:58.580Z,32.17
2023-02-22T20:21:30.764Z,29.10
2023-02-22T20:23:59.566Z,29.23
2023-02-22T20:26:30.970Z,31.83
2023-02-22T20:29:00.119Z,32.20
2023-02-22T20:31:29.559Z,30.43
2023-02-22T20:33:59.792Z,29.43
2023-02-22T20:36:28.980Z,33.20
2023-02-22T20:38:59.276Z,32.50
2023-02-22T20:41:30.812Z,31.50
2023-02-22T20:44:00.184Z,32.83
2023-02-22T20:46:31.829Z,34.10
2023-02-22T20:49:01.868Z,33.50
2023-02-22T20:51:31.201Z,38.17
2023-02-22T20:54:00.925Z,33.27
2023-02-22T20:56:31.961Z,30.87
2023-02-22T20:59:01.635Z,36.67
2023-02-22T21:01:30.000Z,35.33
2023-02-22T21:04:01.973Z,35.03
2023-02-22T21:06:30.904Z,33.47
2023-02-22T21:09:02.625Z,36.20
2023-02-22T21:11:32.750Z,37.47
2023-02-22T21:14:00.995Z,35.70
2023-02-22T21:16:30.487Z,33.67
2023-02-22T21:19:00.846Z,39.87
2023-02-22T21:21:30.001Z,38.53
2023-02-22T21:24:01.514Z,37.97
2023-02-22T21:26:32.747Z,38.67
2023-02-22T21:29:03.403Z,38.47
2023-02-22T21:31:32.388Z,35.40
2023-02-22T21:34:01.093Z,38.27
2023-02-22T21:36:29.344Z,40.03
2023-02-22T21:38:58.934Z,39.83
2023-02-22T21:41:29.005Z,39.77
2023-02-22T21:43:59.826Z,37.57
2023-02-22T21:46:29.516Z,40.20
2023-02-22T21:48:58.625Z,36.53
2023-02-22T21:51:31.323Z,38.60
2023-02-22T21:54:01.623Z,38.90
2023-02-22T21:56:31.506Z,36.53
2023-02-22T21:59:03.415Z,37.23
2023-02-22T22:01:33.428Z,35.17
2023-02-22T22:04:02.812Z,36.10
2023-02-22T22:06:32.826Z,38.90
2023-02-22T22:09:01.382Z,39.83
2023-02-22T22:11:30.573Z,49.40
2023-02-22T22:14:00.469Z,37.17
2023-02-22T22:16:30.323Z,37.63
2023-02-22T22:18:58.336Z,39.97
2023-02-22T22:21:26.420Z,38.13
2023-02-22T22:23:56.106Z,40.53
2023-02-22T22:26:25.731Z,39.33
2023-02-22T22:28:56.022Z,41.63
2023-02-22T22:31:26.955Z,41.00
2023-02-22T22:33:55.436Z,41.70
2023-02-22T22:36:24.537Z,41.00
2023-02-22T22:38:52.847Z,43.37
2023-02-22T22:41:21.861Z,36.63
2023-02-22T22:43:52.357Z,38.80
2023-02-22T22:46:20.387Z,39.57
2023-02-22T22:48:49.929Z,39.03
2023-02-22T22:51:21.064Z,43.03
2023-02-22T22:53:50.694Z,40.83
2023-02-22T22:56:21.558Z,38.10
2023-02-22T22:58:51.190Z,39.23
2023-02-22T23:01:26.582Z,40.30
2023-02-22T23:04:01.681Z,41.20
2023-02-22T23:06:32.724Z,44.20
2023-02-22T23:09:10.165Z,40.40
2023-02-22T23:11:42.298Z,39.40
2023-02-22T23:14:10.038Z,42.43
2023-02-22T23:16:38.162Z,40.23
2023-02-22T23:19:09.189Z,41.40
2023-02-22T23:21:37.641Z,43.17
2023-02-22T23:24:07.034Z,38.87
2023-02-22T23:26:36.833Z,39.80
2023-02-22T23:29:05.295Z,39.83
2023-02-22T23:31:33.254Z,38.43
2023-02-22T23:34:06.605Z,41.03
2023-02-22T23:36:35.933Z,42.07
2023-02-22T23:39:04.769Z,41.93
2023-02-22T23:41:32.594Z,44.67
2023-02-22T23:44:00.287Z,42.57
2023-02-22T23:46:32.735Z,38.77
2023-02-22T23:49:02.567Z,43.57
2023-02-22T23:51:39.142Z,44.80
2023-02-22T23:54:12.345Z,44.40
2023-02-22T23:56:47.120Z,39.70
2023-02-22T23:59:15.835Z,42.50
